Hartford, CT

1:46 PM EST on February 07, 2016 (GMT -0500)
KCTEASTH16 | | Change Station
CLOSE
Current Station
Personal Weather Station
Location: East Hartford, CT
Elevation: 56 ft
Nearby Weather Stations

Elev 56 ft 41.79 °N, 72.63 °W | Updated 12 minutes ago

Clear
Clear
45.5 °F
Feels Like 46 °F
N
2.7
Wind Variable Wind from East

Today
High -- | Low -- °F
--% Chance of Precip.
Yesterday
High -- | Low -- °F
Precip. -- in
Pressure 30.14 in
Visibility 10.0 miles
Clouds Clear
Windchill 46 °F
Dew Point 17 °F
Humidity 31%
Rainfall 0.23 in
Snow Depth Not available.
6:56 AM 5:13 PM
Waning Crescent, 1% visible
METAR KHFD 071753Z 13004KT 10SM CLR 06/M05 A3014 RMK AO2 SLP205 T00611050 10061 21061 55016
Pressure 30.14 in
Visibility 10.0 miles
Clouds Clear
Windchill 46 °F
Dew Point 17 °F
Humidity 31%
Rainfall 0.23 in
Snow Depth Not available.
6:56 AM 5:13 PM
Waning Crescent, 1% visible
METAR KHFD 071753Z 13004KT 10SM CLR 06/M05 A3014 RMK AO2 SLP205 T00611050 10061 21061 55016

10-Day Weather Forecast

Almanac

Astronomy

Feb. 07, 2016 Rise Set
Actual Time
Civil Twilight
Nautical Twilight
Astronomical Twilight
Moon
Length of Visible Light
Length of Day
Tomorrow will be .
, % of the Moon is Illuminated

Today's Extremes

State Highs State Lows

Community

WunderPhotos

Upload Photos

1,891,280 photos uploaded!

WunderBlog® & News

Nearby

Air Quality

  Air Quality AQ Index Pollutant
Not available.

Snow Depth

Station Depth Elevation

Earthquake Activity

City Distance Mag. Time & Date
Minimum magnitude displayed is 2.5.

Coastal Water Temperatures

Place Temperature

Stations

Nearby Weather Stations

Station Location Temp. Windchill Dew Point Humidity Wind Precip. Elev Updated Type
                   

Watches & Warnings

There are currently no watches in effect.